sensor_id;sensor_type;location;lat;lon;timestamp;pressure;altitude;pressure_sealevel;temperature;humidity
29535;BME280;72082;52.650;8.116;2023-10-09T00:00:48;101552.44;;;14.97;93.77
29535;BME280;72082;52.650;8.116;2023-10-09T00:03:13;101555.91;;;14.96;93.86
29535;BME280;72082;52.650;8.116;2023-10-09T00:05:39;101551.63;;;14.96;94.17
29535;BME280;72082;52.650;8.116;2023-10-09T00:08:04;101534.41;;;14.95;93.93
29535;BME280;72082;52.650;8.116;2023-10-09T00:10:29;101532.69;;;14.93;93.88
29535;BME280;72082;52.650;8.116;2023-10-09T00:12:55;101528.44;;;14.90;94.14
29535;BME280;72082;52.650;8.116;2023-10-09T00:15:20;101525.88;;;14.86;94.26
29535;BME280;72082;52.650;8.116;2023-10-09T00:17:45;101544.78;;;14.86;94.43
29535;BME280;72082;52.650;8.116;2023-10-09T00:20:10;101539.63;;;14.88;94.39
29535;BME280;72082;52.650;8.116;2023-10-09T00:22:36;101542.16;;;14.92;94.34
29535;BME280;72082;52.650;8.116;2023-10-09T00:25:01;101541.28;;;14.96;93.82
29535;BME280;72082;52.650;8.116;2023-10-09T00:27:26;101532.69;;;14.96;93.93
29535;BME280;72082;52.650;8.116;2023-10-09T00:29:51;101518.06;;;14.95;93.92
29535;BME280;72082;52.650;8.116;2023-10-09T00:32:17;101539.59;;;14.94;94.03
29535;BME280;72082;52.650;8.116;2023-10-09T00:34:42;101550.75;;;14.96;93.92
29535;BME280;72082;52.650;8.116;2023-10-09T00:37:11;101554.16;;;14.99;94.11
29535;BME280;72082;52.650;8.116;2023-10-09T00:39:36;101556.72;;;15.04;93.99
29535;BME280;72082;52.650;8.116;2023-10-09T00:42:02;101548.06;;;15.08;93.99
29535;BME280;72082;52.650;8.116;2023-10-09T00:44:27;101548.03;;;15.11;93.51
29535;BME280;72082;52.650;8.116;2023-10-09T00:46:52;101550.59;;;15.14;93.99
29535;BME280;72082;52.650;8.116;2023-10-09T00:49:18;101552.28;;;15.16;93.70
29535;BME280;72082;52.650;8.116;2023-10-09T00:51:47;101536.78;;;15.18;93.58
29535;BME280;72082;52.650;8.116;2023-10-09T00:54:15;101523.03;;;15.16;93.67
29535;BME280;72082;52.650;8.116;2023-10-09T00:56:41;101531.72;;;15.09;93.84
29535;BME280;72082;52.650;8.116;2023-10-09T00:59:08;101528.31;;;15.04;94.06
29535;BME280;72082;52.650;8.116;2023-10-09T01:01:34;101521.53;;;14.94;94.23
29535;BME280;72082;52.650;8.116;2023-10-09T01:04:01;101506.13;;;14.78;94.49
29535;BME280;72082;52.650;8.116;2023-10-09T01:06:26;101499.41;;;14.64;95.41
29535;BME280;72082;52.650;8.116;2023-10-09T01:08:52;101481.47;;;14.46;95.99
29535;BME280;72082;52.650;8.116;2023-10-09T01:11:17;101454.91;;;14.27;96.96
29535;BME280;72082;52.650;8.116;2023-10-09T01:13:42;101457.59;;;14.10;97.39
29535;BME280;72082;52.650;8.116;2023-10-09T01:16:08;101471.41;;;14.03;97.80
29535;BME280;72082;52.650;8.116;2023-10-09T01:18:33;101480.00;;;13.98;97.79
29535;BME280;72082;52.650;8.116;2023-10-09T01:20:58;101485.16;;;13.98;97.86
29535;BME280;72082;52.650;8.116;2023-10-09T01:23:23;101480.03;;;13.99;97.59
29535;BME280;72082;52.650;8.116;2023-10-09T01:25:48;101471.41;;;14.02;97.31
29535;BME280;72082;52.650;8.116;2023-10-09T01:28:14;101472.28;;;14.02;96.98
29535;BME280;72082;52.650;8.116;2023-10-09T01:30:39;101466.22;;;14.06;97.04
29535;BME280;72082;52.650;8.116;2023-10-09T01:33:04;101459.34;;;14.08;96.50
29535;BME280;72082;52.650;8.116;2023-10-09T01:35:29;101464.50;;;14.08;96.44
29535;BME280;72082;52.650;8.116;2023-10-09T01:37:54;101456.78;;;14.07;96.57
29535;BME280;72082;52.650;8.116;2023-10-09T01:40:20;101443.91;;;14.07;96.57
29535;BME280;72082;52.650;8.116;2023-10-09T01:42:45;101438.72;;;14.08;96.96
29535;BME280;72082;52.650;8.116;2023-10-09T01:45:11;101429.25;;;14.12;96.92
29535;BME280;72082;52.650;8.116;2023-10-09T01:47:36;101423.25;;;14.13;96.67
29535;BME280;72082;52.650;8.116;2023-10-09T01:50:02;101419.78;;;14.14;96.61
29535;BME280;72082;52.650;8.116;2023-10-09T01:52:27;101413.78;;;14.12;96.43
29535;BME280;72082;52.650;8.116;2023-10-09T01:54:52;101423.25;;;14.10;96.54
29535;BME280;72082;52.650;8.116;2023-10-09T01:57:19;101407.78;;;14.08;97.02
29535;BME280;72082;52.650;8.116;2023-10-09T01:59:44;101429.25;;;14.12;97.09
29535;BME280;72082;52.650;8.116;2023-10-09T02:02:11;101414.59;;;14.18;96.80
29535;BME280;72082;52.650;8.116;2023-10-09T02:04:36;101425.75;;;14.22;96.57
29535;BME280;72082;52.650;8.116;2023-10-09T02:07:01;101430.88;;;14.23;96.49
29535;BME280;72082;52.650;8.116;2023-10-09T02:09:27;101430.88;;;14.25;96.29
29535;BME280;72082;52.650;8.116;2023-10-09T02:11:52;101440.31;;;14.28;96.53
29535;BME280;72082;52.650;8.116;2023-10-09T02:14:17;101436.84;;;14.30;96.75
29535;BME280;72082;52.650;8.116;2023-10-09T02:16:42;101436.00;;;14.34;96.43
29535;BME280;72082;52.650;8.116;2023-10-09T02:19:07;101431.69;;;14.35;96.46
29535;BME280;72082;52.650;8.116;2023-10-09T02:21:33;101429.97;;;14.38;96.44
29535;BME280;72082;52.650;8.116;2023-10-09T02:23:58;101431.66;;;14.39;96.23
29535;BME280;72082;52.650;8.116;2023-10-09T02:26:23;101421.31;;;14.42;96.41
29535;BME280;72082;52.650;8.116;2023-10-09T02:28:48;101425.59;;;14.45;96.19
29535;BME280;72082;52.650;8.116;2023-10-09T02:31:14;101419.56;;;14.46;96.63
29535;BME280;72082;52.650;8.116;2023-10-09T02:33:39;101403.28;;;14.44;96.76
29535;BME280;72082;52.650;8.116;2023-10-09T02:36:08;101380.94;;;14.41;96.64
29535;BME280;72082;52.650;8.116;2023-10-09T02:38:34;101380.06;;;14.39;96.89
29535;BME280;72082;52.650;8.116;2023-10-09T02:40:59;101377.56;;;14.36;96.97
29535;BME280;72082;52.650;8.116;2023-10-09T02:43:25;101366.38;;;14.34;97.18
29535;BME280;72082;52.650;8.116;2023-10-09T02:45:50;101362.94;;;14.31;97.31
29535;BME280;72082;52.650;8.116;2023-10-09T02:48:18;101370.69;;;14.29;97.53
29535;BME280;72082;52.650;8.116;2023-10-09T02:50:44;101372.44;;;14.27;97.36
29535;BME280;72082;52.650;8.116;2023-10-09T02:53:09;101371.56;;;14.27;97.40
29535;BME280;72082;52.650;8.116;2023-10-09T02:55:34;101369.84;;;14.27;97.67
29535;BME280;72082;52.650;8.116;2023-10-09T02:57:59;101371.56;;;14.28;97.45
29535;BME280;72082;52.650;8.116;2023-10-09T03:00:25;101374.16;;;14.28;97.91
29535;BME280;72082;52.650;8.116;2023-10-09T03:02:50;101367.28;;;14.27;97.78
29535;BME280;72082;52.650;8.116;2023-10-09T03:05:16;101355.22;;;14.26;97.80
29535;BME280;72082;52.650;8.116;2023-10-09T03:07:41;101359.56;;;14.24;97.98
29535;BME280;72082;52.650;8.116;2023-10-09T03:10:07;101354.41;;;14.21;98.15
29535;BME280;72082;52.650;8.116;2023-10-09T03:12:32;101335.56;;;14.17;98.25
29535;BME280;72082;52.650;8.116;2023-10-09T03:14:58;101344.16;;;14.16;98.37
29535;BME280;72082;52.650;8.116;2023-10-09T03:17:23;101337.31;;;14.14;98.19
29535;BME280;72082;52.650;8.116;2023-10-09T03:19:48;101332.16;;;14.12;98.39
29535;BME280;72082;52.650;8.116;2023-10-09T03:22:13;101343.34;;;14.13;98.35
29535;BME280;72082;52.650;8.116;2023-10-09T03:24:39;101345.03;;;14.14;98.54
29535;BME280;72082;52.650;8.116;2023-10-09T03:27:05;101342.44;;;14.14;98.17
29535;BME280;72082;52.650;8.116;2023-10-09T03:29:30;101339.88;;;14.15;98.74
29535;BME280;72082;52.650;8.116;2023-10-09T03:31:55;101324.41;;;14.17;98.40
29535;BME280;72082;52.650;8.116;2023-10-09T03:34:21;101326.09;;;14.16;98.48
29535;BME280;72082;52.650;8.116;2023-10-09T03:36:46;101327.81;;;14.16;99.01
29535;BME280;72082;52.650;8.116;2023-10-09T03:39:11;101328.69;;;14.16;98.74
29535;BME280;72082;52.650;8.116;2023-10-09T03:41:36;101319.25;;;14.15;98.66
29535;BME280;72082;52.650;8.116;2023-10-09T03:44:01;101326.09;;;14.16;98.78
29535;BME280;72082;52.650;8.116;2023-10-09T03:46:27;101326.09;;;14.16;99.00
29535;BME280;72082;52.650;8.116;2023-10-09T03:48:52;101330.41;;;14.17;98.57
29535;BME280;72082;52.650;8.116;2023-10-09T03:51:18;101323.53;;;14.16;98.90
29535;BME280;72082;52.650;8.116;2023-10-09T03:53:43;101326.97;;;14.17;98.93
29535;BME280;72082;52.650;8.116;2023-10-09T03:56:09;101329.53;;;14.20;99.18
29535;BME280;72082;52.650;8.116;2023-10-09T03:58:34;101344.13;;;14.22;99.40
29535;BME280;72082;52.650;8.116;2023-10-09T04:00:59;101347.53;;;14.24;99.17
29535;BME280;72082;52.650;8.116;2023-10-09T04:03:24;101338.06;;;14.25;98.82
29535;BME280;72082;52.650;8.116;2023-10-09T04:05:49;101336.34;;;14.24;99.10
29535;BME280;72082;52.650;8.116;2023-10-09T04:08:15;101337.22;;;14.24;99.15
29535;BME280;72082;52.650;8.116;2023-10-09T04:10:40;101344.09;;;14.24;99.35
29535;BME280;72082;52.650;8.116;2023-10-09T04:13:05;101348.41;;;14.22;99.31
29535;BME280;72082;52.650;8.116;2023-10-09T04:15:30;101358.72;;;14.22;99.71
29535;BME280;72082;52.650;8.116;2023-10-09T04:17:56;101357.00;;;14.21;99.68
29535;BME280;72082;52.650;8.116;2023-10-09T04:20:21;101349.28;;;14.19;99.43
29535;BME280;72082;52.650;8.116;2023-10-09T04:22:47;101344.16;;;14.18;99.76
29535;BME280;72082;52.650;8.116;2023-10-09T04:25:12;101346.75;;;14.15;99.97
29535;BME280;72082;52.650;8.116;2023-10-09T04:27:37;101343.38;;;14.10;100.00
29535;BME280;72082;52.650;8.116;2023-10-09T04:30:03;101343.38;;;14.07;100.00
29535;BME280;72082;52.650;8.116;2023-10-09T04:32:28;101352.84;;;14.05;100.00
29535;BME280;72082;52.650;8.116;2023-10-09T04:34:53;101332.25;;;14.00;100.00
29535;BME280;72082;52.650;8.116;2023-10-09T04:37:18;101334.84;;;13.99;100.00
29535;BME280;72082;52.650;8.116;2023-10-09T04:39:44;101329.72;;;13.96;100.00
29535;BME280;72082;52.650;8.116;2023-10-09T04:42:09;101346.03;;;13.95;100.00
29535;BME280;72082;52.650;8.116;2023-10-09T04:44:34;101341.75;;;13.94;100.00
29535;BME280;72082;52.650;8.116;2023-10-09T04:47:00;101336.59;;;13.94;100.00
29535;BME280;72082;52.650;8.116;2023-10-09T04:49:25;101338.31;;;13.93;100.00
29535;BME280;72082;52.650;8.116;2023-10-09T04:51:51;101340.94;;;13.89;100.00
29535;BME280;72082;52.650;8.116;2023-10-09T04:54:16;101338.34;;;13.87;100.00
29535;BME280;72082;52.650;8.116;2023-10-09T04:56:41;101344.38;;;13.88;100.00
29535;BME280;72082;52.650;8.116;2023-10-09T04:59:06;101335.78;;;13.89;100.00
29535;BME280;72082;52.650;8.116;2023-10-09T05:01:31;101351.22;;;13.90;100.00
29535;BME280;72082;52.650;8.116;2023-10-09T05:03:57;101338.34;;;13.92;100.00
29535;BME280;72082;52.650;8.116;2023-10-09T05:06:22;101322.88;;;13.92;100.00
29535;BME280;72082;52.650;8.116;2023-10-09T05:08:48;101324.56;;;13.93;100.00
29535;BME280;72082;52.650;8.116;2023-10-09T05:11:14;101314.28;;;13.93;100.00
29535;BME280;72082;52.650;8.116;2023-10-09T05:13:39;101326.31;;;13.94;100.00
29535;BME280;72082;52.650;8.116;2023-10-09T05:18:39;101338.28;;;13.95;100.00
29535;BME280;72082;52.650;8.116;2023-10-09T05:21:05;101343.44;;;13.98;100.00
29535;BME280;72082;52.650;8.116;2023-10-09T05:23:30;101349.44;;;13.98;100.00
29535;BME280;72082;52.650;8.116;2023-10-09T05:25:55;101354.63;;;14.00;100.00
29535;BME280;72082;52.650;8.116;2023-10-09T05:28:20;101348.56;;;14.02;100.00
29535;BME280;72082;52.650;8.116;2023-10-09T05:30:45;101351.97;;;14.03;100.00
29535;BME280;72082;52.650;8.116;2023-10-09T05:33:11;101346.81;;;14.03;100.00
29535;BME280;72082;52.650;8.116;2023-10-09T05:35:36;101345.13;;;14.02;100.00
29535;BME280;72082;52.650;8.116;2023-10-09T05:38:01;101346.00;;;14.01;100.00
29535;BME280;72082;52.650;8.116;2023-10-09T05:40:26;101354.63;;;14.00;100.00
29535;BME280;72082;52.650;8.116;2023-10-09T05:42:52;101349.47;;;14.00;100.00
29535;BME280;72082;52.650;8.116;2023-10-09T05:45:17;101345.16;;;13.99;100.00
29535;BME280;72082;52.650;8.116;2023-10-09T05:50:08;101349.47;;;14.00;100.00
29535;BME280;72082;52.650;8.116;2023-10-09T05:52:33;101357.19;;;14.00;100.00
29535;BME280;72082;52.650;8.116;2023-10-09T05:54:59;101349.47;;;14.00;100.00
29535;BME280;72082;52.650;8.116;2023-10-09T05:57:24;101346.00;;;14.01;100.00
29535;BME280;72082;52.650;8.116;2023-10-09T05:59:49;101350.28;;;14.02;100.00
29535;BME280;72082;52.650;8.116;2023-10-09T06:02:14;101351.16;;;14.02;100.00
29535;BME280;72082;52.650;8.116;2023-10-09T06:04:39;101348.56;;;14.04;100.00
29535;BME280;72082;52.650;8.116;2023-10-09T06:07:05;101354.56;;;14.04;100.00
29535;BME280;72082;52.650;8.116;2023-10-09T06:09:30;101338.22;;;14.07;100.00
29535;BME280;72082;52.650;8.116;2023-10-09T06:11:55;101340.78;;;14.08;100.00
29535;BME280;72082;52.650;8.116;2023-10-09T06:14:24;101336.47;;;14.10;100.00
29535;BME280;72082;52.650;8.116;2023-10-09T06:16:49;101345.06;;;14.12;100.00
29535;BME280;72082;52.650;8.116;2023-10-09T06:19:14;101342.47;;;14.15;100.00
29535;BME280;72082;52.650;8.116;2023-10-09T06:21:40;101336.44;;;14.18;100.00
29535;BME280;72082;52.650;8.116;2023-10-09T06:24:07;101332.97;;;14.19;100.00
29535;BME280;72082;52.650;8.116;2023-10-09T06:26:32;101341.53;;;14.22;100.00
29535;BME280;72082;52.650;8.116;2023-10-09T06:28:57;101344.91;;;14.26;100.00
29535;BME280;72082;52.650;8.116;2023-10-09T06:31:22;101344.03;;;14.30;100.00
29535;BME280;72082;52.650;8.116;2023-10-09T06:33:48;101353.47;;;14.34;100.00
29535;BME280;72082;52.650;8.116;2023-10-09T06:36:13;101348.31;;;14.37;100.00
29535;BME280;72082;52.650;8.116;2023-10-09T06:38:38;101338.81;;;14.41;100.00
29535;BME280;72082;52.650;8.116;2023-10-09T06:41:03;101340.50;;;14.42;100.00
29535;BME280;72082;52.650;8.116;2023-10-09T06:43:28;101343.94;;;14.45;100.00
29535;BME280;72082;52.650;8.116;2023-10-09T06:45:56;101336.16;;;14.48;100.00
29535;BME280;72082;52.650;8.116;2023-10-09T06:48:22;101330.97;;;14.50;100.00
29535;BME280;72082;52.650;8.116;2023-10-09T06:50:47;101348.16;;;14.52;100.00
29535;BME280;72082;52.650;8.116;2023-10-09T06:53:12;101335.25;;;14.54;100.00
29535;BME280;72082;52.650;8.116;2023-10-09T06:55:40;101335.22;;;14.57;100.00
29535;BME280;72082;52.650;8.116;2023-10-09T06:58:05;101337.78;;;14.60;100.00
29535;BME280;72082;52.650;8.116;2023-10-09T07:00:31;101336.91;;;14.62;100.00
29535;BME280;72082;52.650;8.116;2023-10-09T07:02:56;101333.44;;;14.65;100.00
29535;BME280;72082;52.650;8.116;2023-10-09T07:05:21;101332.53;;;14.66;100.00
29535;BME280;72082;52.650;8.116;2023-10-09T07:07:46;101327.38;;;14.67;100.00
29535;BME280;72082;52.650;8.116;2023-10-09T07:10:12;101329.06;;;14.71;100.00
29535;BME280;72082;52.650;8.116;2023-10-09T07:12:37;101338.50;;;14.72;100.00
29535;BME280;72082;52.650;8.116;2023-10-09T07:15:02;101335.03;;;14.75;100.00
29535;BME280;72082;52.650;8.116;2023-10-09T07:17:28;101348.75;;;14.78;100.00
29535;BME280;72082;52.650;8.116;2023-10-09T07:19:53;101347.03;;;14.80;100.00
29535;BME280;72082;52.650;8.116;2023-10-09T07:22:19;101344.38;;;14.83;100.00
29535;BME280;72082;52.650;8.116;2023-10-09T07:24:44;101331.47;;;14.83;100.00
29535;BME280;72082;52.650;8.116;2023-10-09T07:27:10;101315.13;;;14.86;100.00
29535;BME280;72082;52.650;8.116;2023-10-09T07:29:36;101325.44;;;14.88;100.00
29535;BME280;72082;52.650;8.116;2023-10-09T07:32:01;101316.81;;;14.90;100.00
29535;BME280;72082;52.650;8.116;2023-10-09T07:34:26;101320.22;;;14.94;100.00
29535;BME280;72082;52.650;8.116;2023-10-09T07:36:52;101333.94;;;14.96;100.00
29535;BME280;72082;52.650;8.116;2023-10-09T07:39:17;101336.50;;;14.97;100.00
29535;BME280;72082;52.650;8.116;2023-10-09T07:41:42;101344.22;;;15.00;100.00
29535;BME280;72082;52.650;8.116;2023-10-09T07:44:07;101349.34;;;15.02;100.00
29535;BME280;72082;52.650;8.116;2023-10-09T07:46:32;101364.81;;;15.05;100.00
29535;BME280;72082;52.650;8.116;2023-10-09T07:49:02;101362.19;;;15.08;100.00
29535;BME280;72082;52.650;8.116;2023-10-09T07:51:28;101372.44;;;15.14;100.00
29535;BME280;72082;52.650;8.116;2023-10-09T07:53:53;101377.59;;;15.17;100.00
29535;BME280;72082;52.650;8.116;2023-10-09T07:56:18;101380.97;;;15.22;100.00
29535;BME280;72082;52.650;8.116;2023-10-09T07:58:44;101374.06;;;15.24;100.00
29535;BME280;72082;52.650;8.116;2023-10-09T08:01:09;101381.72;;;15.28;100.00
29535;BME280;72082;52.650;8.116;2023-10-09T08:03:34;101386.00;;;15.32;100.00
29535;BME280;72082;52.650;8.116;2023-10-09T08:06:00;101384.22;;;15.36;100.00
29535;BME280;72082;52.650;8.116;2023-10-09T08:08:25;101385.06;;;15.36;100.00
29535;BME280;72082;52.650;8.116;2023-10-09T08:10:51;101385.91;;;15.38;100.00
29535;BME280;72082;52.650;8.116;2023-10-09T08:13:16;101381.59;;;15.39;100.00
29535;BME280;72082;52.650;8.116;2023-10-09T08:15:41;101384.19;;;15.40;100.00
29535;BME280;72082;52.650;8.116;2023-10-09T08:18:06;101387.59;;;15.42;100.00
29535;BME280;72082;52.650;8.116;2023-10-09T08:20:31;101383.25;;;15.44;100.00
29535;BME280;72082;52.650;8.116;2023-10-09T08:22:57;101378.09;;;15.46;100.00
29535;BME280;72082;52.650;8.116;2023-10-09T08:25:22;101370.34;;;15.48;100.00
29535;BME280;72082;52.650;8.116;2023-10-09T08:27:48;101395.28;;;15.50;100.00
29535;BME280;72082;52.650;8.116;2023-10-09T08:30:13;101377.19;;;15.50;100.00
29535;BME280;72082;52.650;8.116;2023-10-09T08:32:39;101371.16;;;15.51;100.00
29535;BME280;72082;52.650;8.116;2023-10-09T08:35:07;101375.44;;;15.54;100.00
29535;BME280;72082;52.650;8.116;2023-10-09T08:37:32;101372.81;;;15.55;100.00
29535;BME280;72082;52.650;8.116;2023-10-09T08:39:57;101360.75;;;15.54;100.00
29535;BME280;72082;52.650;8.116;2023-10-09T08:42:23;101370.22;;;15.55;100.00
29535;BME280;72082;52.650;8.116;2023-10-09T08:44:50;101371.97;;;15.56;100.00
29535;BME280;72082;52.650;8.116;2023-10-09T08:47:16;101371.06;;;15.57;100.00
29535;BME280;72082;52.650;8.116;2023-10-09T08:49:41;101376.19;;;15.60;100.00
29535;BME280;72082;52.650;8.116;2023-10-09T08:52:07;101389.94;;;15.62;100.00
29535;BME280;72082;52.650;8.116;2023-10-09T08:54:32;101384.72;;;15.65;100.00
29535;BME280;72082;52.650;8.116;2023-10-09T08:56:57;101388.13;;;15.69;100.00
29535;BME280;72082;52.650;8.116;2023-10-09T08:59:23;101383.75;;;15.72;100.00
29535;BME280;72082;52.650;8.116;2023-10-09T09:01:49;101377.69;;;15.75;100.00
29535;BME280;72082;52.650;8.116;2023-10-09T09:04:37;101379.38;;;15.79;100.00
29535;BME280;72082;52.650;8.116;2023-10-09T09:07:02;101384.47;;;15.83;100.00
29535;BME280;72082;52.650;8.116;2023-10-09T09:09:27;101375.00;;;15.84;100.00
29535;BME280;72082;52.650;8.116;2023-10-09T09:11:52;101380.13;;;15.85;100.00
29535;BME280;72082;52.650;8.116;2023-10-09T09:14:18;101381.81;;;15.89;100.00
29535;BME280;72082;52.650;8.116;2023-10-09T09:16:43;101380.91;;;15.90;100.00
29535;BME280;72082;52.650;8.116;2023-10-09T09:19:08;101368.81;;;15.94;100.00
29535;BME280;72082;52.650;8.116;2023-10-09T09:21:35;101361.88;;;15.97;100.00
29535;BME280;72082;52.650;8.116;2023-10-09T09:24:00;101366.09;;;16.01;100.00
29535;BME280;72082;52.650;8.116;2023-10-09T09:26:36;101377.28;;;16.03;100.00
29535;BME280;72082;52.650;8.116;2023-10-09T09:29:03;101377.28;;;16.03;100.00
29535;BME280;72082;52.650;8.116;2023-10-09T09:31:28;101372.09;;;16.03;100.00
29535;BME280;72082;52.650;8.116;2023-10-09T09:33:56;101371.19;;;16.06;100.00
29535;BME280;72082;52.650;8.116;2023-10-09T09:36:22;101381.53;;;16.08;100.00
29535;BME280;72082;52.650;8.116;2023-10-09T09:38:47;101391.84;;;16.09;100.00
29535;BME280;72082;52.650;8.116;2023-10-09T09:41:13;101388.41;;;16.08;100.00
29535;BME280;72082;52.650;8.116;2023-10-09T09:43:38;101390.97;;;16.08;100.00
29535;BME280;72082;52.650;8.116;2023-10-09T09:46:04;101387.53;;;16.10;100.00
29535;BME280;72082;52.650;8.116;2023-10-09T09:48:30;101388.38;;;16.10;100.00
29535;BME280;72082;52.650;8.116;2023-10-09T09:50:57;101401.31;;;16.08;100.00
29535;BME280;72082;52.650;8.116;2023-10-09T09:53:23;101404.81;;;16.06;100.00
29535;BME280;72082;52.650;8.116;2023-10-09T09:55:53;101400.56;;;16.02;100.00
29535;BME280;72082;52.650;8.116;2023-10-09T09:58:18;101413.53;;;16.00;100.00
29535;BME280;72082;52.650;8.116;2023-10-09T10:00:44;101404.94;;;15.98;100.00
29535;BME280;72082;52.650;8.116;2023-10-09T10:03:12;101404.06;;;15.99;100.00
29535;BME280;72082;52.650;8.116;2023-10-09T10:05:40;101410.13;;;15.97;100.00
29535;BME280;72082;52.650;8.116;2023-10-09T10:08:08;101392.03;;;15.97;100.00
29535;BME280;72082;52.650;8.116;2023-10-09T10:10:38;101374.75;;;15.99;100.00
29535;BME280;72082;52.650;8.116;2023-10-09T10:13:05;101380.78;;;15.99;100.00
29535;BME280;72082;52.650;8.116;2023-10-09T10:18:20;101398.00;;;16.02;100.00
29535;BME280;72082;52.650;8.116;2023-10-09T10:21:10;101388.47;;;16.04;100.00
29535;BME280;72082;52.650;8.116;2023-10-09T10:23:35;101391.06;;;16.05;100.00
29535;BME280;72082;52.650;8.116;2023-10-09T10:26:19;101385.81;;;16.08;100.00
29535;BME280;72082;52.650;8.116;2023-10-09T10:28:44;101390.06;;;16.13;100.00
29535;BME280;72082;52.650;8.116;2023-10-09T10:31:57;101389.09;;;16.20;100.00
29535;BME280;72082;52.650;8.116;2023-10-09T10:34:25;101382.16;;;16.23;100.00
29535;BME280;72082;52.650;8.116;2023-10-09T10:36:53;101394.19;;;16.24;100.00
29535;BME280;72082;52.650;8.116;2023-10-09T10:39:21;101385.50;;;16.28;100.00
29535;BME280;72082;52.650;8.116;2023-10-09T10:41:56;101389.72;;;16.34;100.00
29535;BME280;72082;52.650;8.116;2023-10-09T10:44:30;101381.94;;;16.37;100.00
29535;BME280;72082;52.650;8.116;2023-10-09T10:46:55;101378.34;;;16.44;100.00
29535;BME280;72082;52.650;8.116;2023-10-09T10:49:21;101384.25;;;16.52;100.00
29535;BME280;72082;52.650;8.116;2023-10-09T10:51:47;101387.69;;;16.55;100.00
29535;BME280;72082;52.650;8.116;2023-10-09T10:54:20;101394.59;;;16.53;100.00
29535;BME280;72082;52.650;8.116;2023-10-09T10:56:46;101394.59;;;16.50;100.00
29535;BME280;72082;52.650;8.116;2023-10-09T10:59:11;101398.13;;;16.46;100.00
29535;BME280;72082;52.650;8.116;2023-10-09T11:01:37;101399.03;;;16.44;100.00
29535;BME280;72082;52.650;8.116;2023-10-09T11:04:11;101395.59;;;16.45;100.00
29535;BME280;72082;52.650;8.116;2023-10-09T11:06:36;101402.44;;;16.47;100.00
29535;BME280;72082;52.650;8.116;2023-10-09T11:09:03;101400.69;;;16.49;100.00
29535;BME280;72082;52.650;8.116;2023-10-09T11:11:28;101409.31;;;16.50;100.00
29535;BME280;72082;52.650;8.116;2023-10-09T11:13:53;101415.28;;;16.53;100.00
29535;BME280;72082;52.650;8.116;2023-10-09T11:16:19;101396.25;;;16.57;100.00
29535;BME280;72082;52.650;8.116;2023-10-09T11:18:44;101392.72;;;16.61;100.00
29535;BME280;72082;52.650;8.116;2023-10-09T11:21:10;101400.44;;;16.64;100.00
29535;BME280;72082;52.650;8.116;2023-10-09T11:23:35;101399.53;;;16.67;100.00
29535;BME280;72082;52.650;8.116;2023-10-09T11:26:05;101396.84;;;16.72;100.00
29535;BME280;72082;52.650;8.116;2023-10-09T11:28:30;101391.63;;;16.75;100.00
29535;BME280;72082;52.650;8.116;2023-10-09T11:31:06;101390.72;;;16.77;100.00
29535;BME280;72082;52.650;8.116;2023-10-09T11:33:49;101395.84;;;16.80;100.00
29535;BME280;72082;52.650;8.116;2023-10-09T11:36:15;101402.78;;;16.78;100.00
29535;BME280;72082;52.650;8.116;2023-10-09T11:38:41;101405.41;;;16.77;100.00
29535;BME280;72082;52.650;8.116;2023-10-09T11:41:16;101411.47;;;16.74;100.00
29535;BME280;72082;52.650;8.116;2023-10-09T11:43:53;101408.06;;;16.74;100.00
29535;BME280;72082;52.650;8.116;2023-10-09T11:46:20;101413.25;;;16.74;100.00
29535;BME280;72082;52.650;8.116;2023-10-09T11:48:45;101415.78;;;16.75;100.00
29535;BME280;72082;52.650;8.116;2023-10-09T11:51:12;101409.66;;;16.79;100.00
29535;BME280;72082;52.650;8.116;2023-10-09T11:53:42;101408.75;;;16.83;100.00
29535;BME280;72082;52.650;8.116;2023-10-09T11:56:07;101405.25;;;16.84;100.00
29535;BME280;72082;52.650;8.116;2023-10-09T11:58:33;101402.59;;;16.89;100.00
29535;BME280;72082;52.650;8.116;2023-10-09T12:00:58;101408.56;;;16.94;100.00
29535;BME280;72082;52.650;8.116;2023-10-09T12:03:25;101407.59;;;16.98;100.00
29535;BME280;72082;52.650;8.116;2023-10-09T12:05:50;101410.94;;;17.03;100.00
29535;BME280;72082;52.650;8.116;2023-10-09T12:08:16;101410.91;;;17.06;100.00
29535;BME280;72082;52.650;8.116;2023-10-09T12:10:41;101399.63;;;17.08;100.00
29535;BME280;72082;52.650;8.116;2023-10-09T12:13:07;101416.03;;;17.09;100.00
29535;BME280;72082;52.650;8.116;2023-10-09T12:15:32;101409.94;;;17.11;100.00
29535;BME280;72082;52.650;8.116;2023-10-09T12:17:57;101413.28;;;17.16;100.00
29535;BME280;72082;52.650;8.116;2023-10-09T12:20:22;101406.31;;;17.20;100.00
29535;BME280;72082;52.650;8.116;2023-10-09T12:22:48;101409.75;;;17.20;100.00
29535;BME280;72082;52.650;8.116;2023-10-09T12:25:13;101404.59;;;17.19;100.00
29535;BME280;72082;52.650;8.116;2023-10-09T12:27:38;101409.84;;;17.16;100.00
29535;BME280;72082;52.650;8.116;2023-10-09T12:30:04;101404.69;;;17.14;100.00
29535;BME280;72082;52.650;8.116;2023-10-09T12:32:29;101412.47;;;17.14;100.00
29535;BME280;72082;52.650;8.116;2023-10-09T12:34:54;101409.88;;;17.14;100.00
29535;BME280;72082;52.650;8.116;2023-10-09T12:37:20;101409.78;;;17.19;100.00
29535;BME280;72082;52.650;8.116;2023-10-09T12:39:45;101423.44;;;17.27;100.00
29535;BME280;72082;52.650;8.116;2023-10-09T12:42:10;101415.59;;;17.30;100.00
29535;BME280;72082;52.650;8.116;2023-10-09T12:44:36;101402.63;;;17.32;100.00